sensor_id;sensor_type;location;lat;lon;timestamp;P1;durP1;ratioP1;P2;durP2;ratioP2
50495;SDS011;38806;51.554;5.704;2023-10-09T00:01:47;37.75;;;18.67;;
50495;SDS011;38806;51.554;5.704;2023-10-09T00:03:48;35.40;;;20.98;;
50495;SDS011;38806;51.554;5.704;2023-10-09T00:05:53;40.88;;;22.08;;
50495;SDS011;38806;51.554;5.704;2023-10-09T00:07:53;43.70;;;21.98;;
50495;SDS011;38806;51.554;5.704;2023-10-09T00:09:56;37.65;;;21.85;;
50495;SDS011;38806;51.554;5.704;2023-10-09T00:11:56;36.65;;;20.65;;
50495;SDS011;38806;51.554;5.704;2023-10-09T00:13:57;30.30;;;20.35;;
50495;SDS011;38806;51.554;5.704;2023-10-09T00:15:58;36.75;;;18.45;;
50495;SDS011;38806;51.554;5.704;2023-10-09T00:18:08;30.70;;;18.45;;
50495;SDS011;38806;51.554;5.704;2023-10-09T00:20:12;35.67;;;18.00;;
50495;SDS011;38806;51.554;5.704;2023-10-09T00:22:31;36.10;;;20.38;;
50495;SDS011;38806;51.554;5.704;2023-10-09T00:24:38;31.92;;;19.00;;
50495;SDS011;38806;51.554;5.704;2023-10-09T00:26:45;34.23;;;18.90;;
50495;SDS011;38806;51.554;5.704;2023-10-09T00:28:46;32.55;;;17.85;;
50495;SDS011;38806;51.554;5.704;2023-10-09T00:30:47;30.40;;;18.17;;
50495;SDS011;38806;51.554;5.704;2023-10-09T00:32:47;34.90;;;18.48;;
50495;SDS011;38806;51.554;5.704;2023-10-09T00:35:01;30.92;;;18.17;;
50495;SDS011;38806;51.554;5.704;2023-10-09T00:37:21;39.58;;;21.42;;
50495;SDS011;38806;51.554;5.704;2023-10-09T00:39:25;38.80;;;23.05;;
50495;SDS011;38806;51.554;5.704;2023-10-09T00:41:34;29.25;;;19.48;;
50495;SDS011;38806;51.554;5.704;2023-10-09T00:43:35;33.45;;;17.63;;
50495;SDS011;38806;51.554;5.704;2023-10-09T00:45:37;35.15;;;20.30;;
50495;SDS011;38806;51.554;5.704;2023-10-09T00:47:40;30.65;;;18.38;;
50495;SDS011;38806;51.554;5.704;2023-10-09T00:49:41;40.35;;;21.65;;
50495;SDS011;38806;51.554;5.704;2023-10-09T00:51:44;40.85;;;22.02;;
50495;SDS011;38806;51.554;5.704;2023-10-09T00:53:56;37.95;;;21.02;;
50495;SDS011;38806;51.554;5.704;2023-10-09T00:56:15;41.35;;;22.08;;
50495;SDS011;38806;51.554;5.704;2023-10-09T00:58:27;39.20;;;24.10;;
50495;SDS011;38806;51.554;5.704;2023-10-09T01:00:35;35.78;;;24.30;;
50495;SDS011;38806;51.554;5.704;2023-10-09T01:02:45;40.13;;;21.73;;
50495;SDS011;38806;51.554;5.704;2023-10-09T01:04:45;46.85;;;26.42;;
50495;SDS011;38806;51.554;5.704;2023-10-09T01:06:46;50.38;;;24.88;;
50495;SDS011;38806;51.554;5.704;2023-10-09T01:09:05;48.13;;;25.48;;
50495;SDS011;38806;51.554;5.704;2023-10-09T01:11:15;42.30;;;25.05;;
50495;SDS011;38806;51.554;5.704;2023-10-09T01:15:28;42.47;;;26.80;;
50495;SDS011;38806;51.554;5.704;2023-10-09T01:17:44;38.60;;;22.55;;
50495;SDS011;38806;51.554;5.704;2023-10-09T01:19:45;38.97;;;22.83;;
50495;SDS011;38806;51.554;5.704;2023-10-09T01:21:47;36.83;;;25.90;;
50495;SDS011;38806;51.554;5.704;2023-10-09T01:23:48;42.20;;;24.30;;
50495;SDS011;38806;51.554;5.704;2023-10-09T01:26:03;44.53;;;25.10;;
50495;SDS011;38806;51.554;5.704;2023-10-09T01:28:04;34.08;;;21.80;;
50495;SDS011;38806;51.554;5.704;2023-10-09T01:30:04;38.22;;;26.70;;
50495;SDS011;38806;51.554;5.704;2023-10-09T01:32:05;38.22;;;21.88;;
50495;SDS011;38806;51.554;5.704;2023-10-09T01:34:06;38.63;;;22.80;;
50495;SDS011;38806;51.554;5.704;2023-10-09T01:36:09;37.65;;;23.90;;
50495;SDS011;38806;51.554;5.704;2023-10-09T01:38:15;31.70;;;20.23;;
50495;SDS011;38806;51.554;5.704;2023-10-09T01:40:15;40.90;;;22.80;;
50495;SDS011;38806;51.554;5.704;2023-10-09T01:42:37;47.58;;;23.52;;
50495;SDS011;38806;51.554;5.704;2023-10-09T01:46:48;35.15;;;22.65;;
50495;SDS011;38806;51.554;5.704;2023-10-09T01:48:52;41.83;;;23.80;;
50495;SDS011;38806;51.554;5.704;2023-10-09T01:50:53;41.42;;;25.23;;
50495;SDS011;38806;51.554;5.704;2023-10-09T01:52:54;45.25;;;25.30;;
50495;SDS011;38806;51.554;5.704;2023-10-09T01:54:54;38.70;;;24.25;;
50495;SDS011;38806;51.554;5.704;2023-10-09T01:57:02;43.92;;;26.65;;
50495;SDS011;38806;51.554;5.704;2023-10-09T01:59:10;43.88;;;26.33;;
50495;SDS011;38806;51.554;5.704;2023-10-09T02:01:11;37.83;;;26.10;;
50495;SDS011;38806;51.554;5.704;2023-10-09T02:03:12;35.38;;;25.67;;
50495;SDS011;38806;51.554;5.704;2023-10-09T02:05:23;49.97;;;27.33;;
50495;SDS011;38806;51.554;5.704;2023-10-09T02:07:25;42.65;;;24.27;;
50495;SDS011;38806;51.554;5.704;2023-10-09T02:09:29;46.05;;;24.50;;
50495;SDS011;38806;51.554;5.704;2023-10-09T02:11:31;43.10;;;29.65;;
50495;SDS011;38806;51.554;5.704;2023-10-09T02:13:43;46.03;;;27.65;;
50495;SDS011;38806;51.554;5.704;2023-10-09T02:15:45;40.35;;;26.60;;
50495;SDS011;38806;51.554;5.704;2023-10-09T02:17:45;47.03;;;27.33;;
50495;SDS011;38806;51.554;5.704;2023-10-09T02:20:08;41.55;;;26.88;;
50495;SDS011;38806;51.554;5.704;2023-10-09T02:22:17;44.85;;;27.23;;
50495;SDS011;38806;51.554;5.704;2023-10-09T02:24:18;43.78;;;26.55;;
50495;SDS011;38806;51.554;5.704;2023-10-09T02:26:38;51.85;;;28.38;;
50495;SDS011;38806;51.554;5.704;2023-10-09T02:28:38;48.20;;;29.50;;
50495;SDS011;38806;51.554;5.704;2023-10-09T02:30:41;42.40;;;24.95;;
50495;SDS011;38806;51.554;5.704;2023-10-09T02:32:44;40.65;;;24.67;;
50495;SDS011;38806;51.554;5.704;2023-10-09T02:34:48;43.40;;;28.02;;
50495;SDS011;38806;51.554;5.704;2023-10-09T02:36:51;42.67;;;25.05;;
50495;SDS011;38806;51.554;5.704;2023-10-09T02:38:57;43.45;;;26.95;;
50495;SDS011;38806;51.554;5.704;2023-10-09T02:40:57;40.93;;;25.07;;
50495;SDS011;38806;51.554;5.704;2023-10-09T02:43:17;39.05;;;24.25;;
50495;SDS011;38806;51.554;5.704;2023-10-09T02:45:19;40.67;;;23.77;;
50495;SDS011;38806;51.554;5.704;2023-10-09T02:47:19;41.97;;;24.92;;
50495;SDS011;38806;51.554;5.704;2023-10-09T02:49:29;40.58;;;25.48;;
50495;SDS011;38806;51.554;5.704;2023-10-09T02:51:30;37.53;;;23.77;;
50495;SDS011;38806;51.554;5.704;2023-10-09T02:53:32;37.78;;;24.70;;
50495;SDS011;38806;51.554;5.704;2023-10-09T02:55:35;40.83;;;24.08;;
50495;SDS011;38806;51.554;5.704;2023-10-09T02:57:38;40.13;;;24.88;;
50495;SDS011;38806;51.554;5.704;2023-10-09T02:59:41;35.70;;;22.48;;
50495;SDS011;38806;51.554;5.704;2023-10-09T03:01:43;32.58;;;21.95;;
50495;SDS011;38806;51.554;5.704;2023-10-09T03:03:43;38.37;;;22.37;;
50495;SDS011;38806;51.554;5.704;2023-10-09T03:05:45;32.38;;;21.73;;
50495;SDS011;38806;51.554;5.704;2023-10-09T03:07:45;32.33;;;22.37;;
50495;SDS011;38806;51.554;5.704;2023-10-09T03:09:45;31.83;;;20.57;;
50495;SDS011;38806;51.554;5.704;2023-10-09T03:11:46;35.03;;;23.30;;
50495;SDS011;38806;51.554;5.704;2023-10-09T03:13:48;37.13;;;22.85;;
50495;SDS011;38806;51.554;5.704;2023-10-09T03:15:48;33.47;;;21.42;;
50495;SDS011;38806;51.554;5.704;2023-10-09T03:17:51;36.75;;;20.75;;
50495;SDS011;38806;51.554;5.704;2023-10-09T03:19:52;35.53;;;22.42;;
50495;SDS011;38806;51.554;5.704;2023-10-09T03:21:52;32.58;;;21.20;;
50495;SDS011;38806;51.554;5.704;2023-10-09T03:23:52;38.83;;;21.23;;
50495;SDS011;38806;51.554;5.704;2023-10-09T03:25:52;33.67;;;22.03;;
50495;SDS011;38806;51.554;5.704;2023-10-09T03:27:53;36.17;;;21.80;;
50495;SDS011;38806;51.554;5.704;2023-10-09T03:29:56;32.65;;;20.92;;
50495;SDS011;38806;51.554;5.704;2023-10-09T03:31:56;33.50;;;19.65;;
50495;SDS011;38806;51.554;5.704;2023-10-09T03:33:57;31.73;;;20.80;;
50495;SDS011;38806;51.554;5.704;2023-10-09T03:35:57;38.25;;;21.60;;
50495;SDS011;38806;51.554;5.704;2023-10-09T03:37:57;33.73;;;20.87;;
50495;SDS011;38806;51.554;5.704;2023-10-09T03:40:01;33.80;;;22.50;;
50495;SDS011;38806;51.554;5.704;2023-10-09T03:42:01;37.03;;;22.10;;
50495;SDS011;38806;51.554;5.704;2023-10-09T03:44:05;32.53;;;21.15;;
50495;SDS011;38806;51.554;5.704;2023-10-09T03:46:07;36.17;;;20.83;;
50495;SDS011;38806;51.554;5.704;2023-10-09T03:48:20;31.98;;;18.75;;
50495;SDS011;38806;51.554;5.704;2023-10-09T03:50:31;34.10;;;21.52;;
50495;SDS011;38806;51.554;5.704;2023-10-09T03:52:37;33.00;;;21.00;;
50495;SDS011;38806;51.554;5.704;2023-10-09T03:54:38;30.77;;;20.33;;
50495;SDS011;38806;51.554;5.704;2023-10-09T03:56:39;29.35;;;18.63;;
50495;SDS011;38806;51.554;5.704;2023-10-09T03:58:39;33.50;;;19.23;;
50495;SDS011;38806;51.554;5.704;2023-10-09T04:00:39;30.23;;;19.63;;
50495;SDS011;38806;51.554;5.704;2023-10-09T04:02:46;34.25;;;21.52;;
50495;SDS011;38806;51.554;5.704;2023-10-09T04:04:49;34.88;;;20.88;;
50495;SDS011;38806;51.554;5.704;2023-10-09T04:06:50;29.98;;;19.40;;
50495;SDS011;38806;51.554;5.704;2023-10-09T04:08:54;33.47;;;19.65;;
50495;SDS011;38806;51.554;5.704;2023-10-09T04:10:55;33.47;;;18.95;;
50495;SDS011;38806;51.554;5.704;2023-10-09T04:13:03;35.25;;;20.85;;
50495;SDS011;38806;51.554;5.704;2023-10-09T04:15:03;33.92;;;19.33;;
50495;SDS011;38806;51.554;5.704;2023-10-09T04:17:06;30.33;;;19.00;;
50495;SDS011;38806;51.554;5.704;2023-10-09T04:19:26;33.00;;;18.90;;
50495;SDS011;38806;51.554;5.704;2023-10-09T04:21:26;34.33;;;20.03;;
50495;SDS011;38806;51.554;5.704;2023-10-09T04:23:36;30.15;;;18.27;;
50495;SDS011;38806;51.554;5.704;2023-10-09T04:25:56;32.17;;;20.13;;
50495;SDS011;38806;51.554;5.704;2023-10-09T04:27:59;33.70;;;18.20;;
50495;SDS011;38806;51.554;5.704;2023-10-09T04:30:19;30.25;;;18.98;;
50495;SDS011;38806;51.554;5.704;2023-10-09T04:32:19;35.35;;;20.77;;
50495;SDS011;38806;51.554;5.704;2023-10-09T04:34:19;34.53;;;20.30;;
50495;SDS011;38806;51.554;5.704;2023-10-09T04:36:22;35.78;;;19.92;;
50495;SDS011;38806;51.554;5.704;2023-10-09T04:38:22;37.80;;;20.75;;
50495;SDS011;38806;51.554;5.704;2023-10-09T04:40:23;34.83;;;19.77;;
50495;SDS011;38806;51.554;5.704;2023-10-09T04:42:38;34.92;;;19.50;;
50495;SDS011;38806;51.554;5.704;2023-10-09T04:44:38;32.55;;;20.38;;
50495;SDS011;38806;51.554;5.704;2023-10-09T04:46:39;34.15;;;19.92;;
50495;SDS011;38806;51.554;5.704;2023-10-09T04:48:43;32.20;;;20.38;;
50495;SDS011;38806;51.554;5.704;2023-10-09T04:50:49;30.92;;;22.10;;
50495;SDS011;38806;51.554;5.704;2023-10-09T04:53:09;30.55;;;20.00;;
50495;SDS011;38806;51.554;5.704;2023-10-09T04:55:18;32.67;;;19.50;;
50495;SDS011;38806;51.554;5.704;2023-10-09T04:57:19;33.22;;;20.05;;
50495;SDS011;38806;51.554;5.704;2023-10-09T04:59:19;31.57;;;20.20;;
50495;SDS011;38806;51.554;5.704;2023-10-09T05:01:24;35.75;;;19.90;;
50495;SDS011;38806;51.554;5.704;2023-10-09T05:03:36;34.78;;;20.77;;
50495;SDS011;38806;51.554;5.704;2023-10-09T05:05:39;34.67;;;21.20;;
50495;SDS011;38806;51.554;5.704;2023-10-09T05:07:42;32.85;;;19.40;;
50495;SDS011;38806;51.554;5.704;2023-10-09T05:09:54;30.10;;;18.52;;
50495;SDS011;38806;51.554;5.704;2023-10-09T05:12:14;37.17;;;20.88;;
50495;SDS011;38806;51.554;5.704;2023-10-09T05:14:15;29.10;;;19.70;;
50495;SDS011;38806;51.554;5.704;2023-10-09T05:16:17;32.75;;;20.90;;
50495;SDS011;38806;51.554;5.704;2023-10-09T05:18:28;36.45;;;21.90;;
50495;SDS011;38806;51.554;5.704;2023-10-09T05:20:36;30.77;;;18.35;;
50495;SDS011;38806;51.554;5.704;2023-10-09T05:23:08;28.83;;;19.83;;
50495;SDS011;38806;51.554;5.704;2023-10-09T05:25:24;35.92;;;20.60;;
50495;SDS011;38806;51.554;5.704;2023-10-09T05:27:53;27.42;;;19.45;;
50495;SDS011;38806;51.554;5.704;2023-10-09T05:30:13;36.95;;;21.10;;
50495;SDS011;38806;51.554;5.704;2023-10-09T05:32:24;32.53;;;22.00;;
50495;SDS011;38806;51.554;5.704;2023-10-09T05:34:30;29.23;;;19.25;;
50495;SDS011;38806;51.554;5.704;2023-10-09T05:36:49;34.22;;;21.73;;
50495;SDS011;38806;51.554;5.704;2023-10-09T05:38:49;32.78;;;22.30;;
50495;SDS011;38806;51.554;5.704;2023-10-09T05:40:59;33.97;;;21.27;;
50495;SDS011;38806;51.554;5.704;2023-10-09T05:43:19;34.72;;;20.63;;
50495;SDS011;38806;51.554;5.704;2023-10-09T05:45:38;29.92;;;21.13;;
50495;SDS011;38806;51.554;5.704;2023-10-09T05:47:57;34.50;;;20.38;;
50495;SDS011;38806;51.554;5.704;2023-10-09T05:50:06;30.23;;;20.23;;
50495;SDS011;38806;51.554;5.704;2023-10-09T05:52:09;32.72;;;19.70;;
50495;SDS011;38806;51.554;5.704;2023-10-09T05:54:29;34.60;;;21.25;;
50495;SDS011;38806;51.554;5.704;2023-10-09T05:56:49;37.75;;;20.02;;
50495;SDS011;38806;51.554;5.704;2023-10-09T05:59:08;35.90;;;20.92;;
50495;SDS011;38806;51.554;5.704;2023-10-09T06:01:11;35.63;;;19.55;;
50495;SDS011;38806;51.554;5.704;2023-10-09T06:03:30;29.42;;;20.65;;
50495;SDS011;38806;51.554;5.704;2023-10-09T06:05:49;36.95;;;20.88;;
50495;SDS011;38806;51.554;5.704;2023-10-09T06:07:56;36.45;;;21.80;;
50495;SDS011;38806;51.554;5.704;2023-10-09T06:10:07;32.65;;;20.45;;
50495;SDS011;38806;51.554;5.704;2023-10-09T06:12:27;32.10;;;20.50;;
50495;SDS011;38806;51.554;5.704;2023-10-09T06:14:33;31.00;;;19.85;;
50495;SDS011;38806;51.554;5.704;2023-10-09T06:16:37;31.95;;;19.15;;
50495;SDS011;38806;51.554;5.704;2023-10-09T06:18:46;38.00;;;21.25;;
50495;SDS011;38806;51.554;5.704;2023-10-09T06:21:07;36.67;;;21.08;;
50495;SDS011;38806;51.554;5.704;2023-10-09T06:23:09;34.30;;;21.27;;
50495;SDS011;38806;51.554;5.704;2023-10-09T06:25:15;31.90;;;21.58;;
50495;SDS011;38806;51.554;5.704;2023-10-09T06:27:18;27.65;;;19.05;;
50495;SDS011;38806;51.554;5.704;2023-10-09T06:29:30;38.97;;;22.80;;
50495;SDS011;38806;51.554;5.704;2023-10-09T06:31:35;34.05;;;20.15;;
50495;SDS011;38806;51.554;5.704;2023-10-09T06:33:55;31.30;;;19.08;;
50495;SDS011;38806;51.554;5.704;2023-10-09T06:36:15;28.83;;;19.80;;
50495;SDS011;38806;51.554;5.704;2023-10-09T06:38:18;32.50;;;20.63;;
50495;SDS011;38806;51.554;5.704;2023-10-09T06:40:34;33.60;;;22.42;;
50495;SDS011;38806;51.554;5.704;2023-10-09T06:42:52;35.58;;;20.27;;
50495;SDS011;38806;51.554;5.704;2023-10-09T06:44:55;36.60;;;23.20;;
50495;SDS011;38806;51.554;5.704;2023-10-09T06:46:55;29.42;;;20.35;;
50495;SDS011;38806;51.554;5.704;2023-10-09T06:48:57;32.45;;;21.00;;
50495;SDS011;38806;51.554;5.704;2023-10-09T06:51:03;33.33;;;22.27;;
50495;SDS011;38806;51.554;5.704;2023-10-09T06:53:34;33.40;;;21.15;;
50495;SDS011;38806;51.554;5.704;2023-10-09T06:55:52;31.80;;;21.70;;
50495;SDS011;38806;51.554;5.704;2023-10-09T06:58:01;35.08;;;19.92;;
50495;SDS011;38806;51.554;5.704;2023-10-09T07:00:01;31.05;;;19.23;;
50495;SDS011;38806;51.554;5.704;2023-10-09T07:02:25;33.55;;;20.42;;
50495;SDS011;38806;51.554;5.704;2023-10-09T07:04:25;36.08;;;22.38;;
50495;SDS011;38806;51.554;5.704;2023-10-09T07:06:31;30.95;;;19.40;;
50495;SDS011;38806;51.554;5.704;2023-10-09T07:08:37;33.38;;;20.23;;
50495;SDS011;38806;51.554;5.704;2023-10-09T07:10:38;34.25;;;21.95;;
50495;SDS011;38806;51.554;5.704;2023-10-09T07:12:39;33.10;;;20.13;;
50495;SDS011;38806;51.554;5.704;2023-10-09T07:14:44;39.40;;;22.48;;
50495;SDS011;38806;51.554;5.704;2023-10-09T07:16:44;33.80;;;20.60;;
50495;SDS011;38806;51.554;5.704;2023-10-09T07:19:04;33.63;;;19.15;;
50495;SDS011;38806;51.554;5.704;2023-10-09T07:21:30;36.20;;;21.13;;
50495;SDS011;38806;51.554;5.704;2023-10-09T07:23:31;29.60;;;19.08;;
50495;SDS011;38806;51.554;5.704;2023-10-09T07:25:32;30.13;;;20.05;;
50495;SDS011;38806;51.554;5.704;2023-10-09T07:27:42;30.75;;;20.67;;
50495;SDS011;38806;51.554;5.704;2023-10-09T07:29:48;29.17;;;18.90;;
50495;SDS011;38806;51.554;5.704;2023-10-09T07:31:49;28.25;;;19.52;;
50495;SDS011;38806;51.554;5.704;2023-10-09T07:33:57;35.92;;;22.23;;
50495;SDS011;38806;51.554;5.704;2023-10-09T07:35:58;29.55;;;17.88;;
50495;SDS011;38806;51.554;5.704;2023-10-09T07:38:06;34.63;;;20.50;;
50495;SDS011;38806;51.554;5.704;2023-10-09T07:40:09;29.92;;;19.55;;
50495;SDS011;38806;51.554;5.704;2023-10-09T07:42:09;31.90;;;20.70;;
50495;SDS011;38806;51.554;5.704;2023-10-09T07:44:19;35.85;;;19.83;;
50495;SDS011;38806;51.554;5.704;2023-10-09T07:46:19;30.58;;;18.75;;
50495;SDS011;38806;51.554;5.704;2023-10-09T07:48:38;28.77;;;19.30;;
50495;SDS011;38806;51.554;5.704;2023-10-09T07:50:48;28.80;;;17.90;;
50495;SDS011;38806;51.554;5.704;2023-10-09T07:52:48;29.00;;;19.50;;
50495;SDS011;38806;51.554;5.704;2023-10-09T07:54:49;31.00;;;20.27;;
50495;SDS011;38806;51.554;5.704;2023-10-09T07:56:50;29.65;;;18.63;;
50495;SDS011;38806;51.554;5.704;2023-10-09T07:58:53;32.63;;;18.98;;
50495;SDS011;38806;51.554;5.704;2023-10-09T08:00:54;32.22;;;19.05;;
50495;SDS011;38806;51.554;5.704;2023-10-09T08:02:57;26.33;;;18.27;;
50495;SDS011;38806;51.554;5.704;2023-10-09T08:05:00;33.58;;;20.65;;
50495;SDS011;38806;51.554;5.704;2023-10-09T08:07:05;26.45;;;18.55;;
50495;SDS011;38806;51.554;5.704;2023-10-09T08:09:09;28.08;;;20.15;;
50495;SDS011;38806;51.554;5.704;2023-10-09T08:11:12;28.30;;;17.55;;
50495;SDS011;38806;51.554;5.704;2023-10-09T08:13:31;33.83;;;19.55;;
50495;SDS011;38806;51.554;5.704;2023-10-09T08:15:55;28.42;;;19.08;;
50495;SDS011;38806;51.554;5.704;2023-10-09T08:17:56;26.63;;;18.70;;
50495;SDS011;38806;51.554;5.704;2023-10-09T08:19:59;28.52;;;18.13;;
50495;SDS011;38806;51.554;5.704;2023-10-09T08:22:11;33.90;;;19.27;;
50495;SDS011;38806;51.554;5.704;2023-10-09T08:24:23;29.50;;;18.13;;
50495;SDS011;38806;51.554;5.704;2023-10-09T08:26:41;25.65;;;18.83;;
50495;SDS011;38806;51.554;5.704;2023-10-09T08:28:50;30.52;;;18.52;;
50495;SDS011;38806;51.554;5.704;2023-10-09T08:30:52;31.15;;;18.30;;
50495;SDS011;38806;51.554;5.704;2023-10-09T08:32:55;29.85;;;18.42;;
50495;SDS011;38806;51.554;5.704;2023-10-09T08:35:25;33.95;;;17.92;;
50495;SDS011;38806;51.554;5.704;2023-10-09T08:37:33;29.67;;;19.02;;
50495;SDS011;38806;51.554;5.704;2023-10-09T08:39:33;32.92;;;17.80;;
50495;SDS011;38806;51.554;5.704;2023-10-09T08:41:35;35.55;;;21.48;;
50495;SDS011;38806;51.554;5.704;2023-10-09T08:43:35;34.88;;;18.42;;
50495;SDS011;38806;51.554;5.704;2023-10-09T08:45:39;28.50;;;18.42;;
50495;SDS011;38806;51.554;5.704;2023-10-09T08:47:40;33.22;;;19.13;;
50495;SDS011;38806;51.554;5.704;2023-10-09T08:49:40;29.98;;;17.05;;
50495;SDS011;38806;51.554;5.704;2023-10-09T08:51:42;28.35;;;17.10;;
50495;SDS011;38806;51.554;5.704;2023-10-09T08:53:42;27.73;;;16.77;;
50495;SDS011;38806;51.554;5.704;2023-10-09T08:55:45;24.90;;;15.50;;
50495;SDS011;38806;51.554;5.704;2023-10-09T08:57:46;24.85;;;15.80;;
50495;SDS011;38806;51.554;5.704;2023-10-09T08:59:46;26.25;;;15.88;;
50495;SDS011;38806;51.554;5.704;2023-10-09T09:01:47;23.80;;;17.77;;
50495;SDS011;38806;51.554;5.704;2023-10-09T09:03:49;30.77;;;17.80;;
50495;SDS011;38806;51.554;5.704;2023-10-09T09:05:57;24.85;;;16.98;;
50495;SDS011;38806;51.554;5.704;2023-10-09T09:08:01;28.65;;;17.67;;
50495;SDS011;38806;51.554;5.704;2023-10-09T09:10:01;20.25;;;14.13;;
50495;SDS011;38806;51.554;5.704;2023-10-09T09:12:17;26.48;;;17.77;;
50495;SDS011;38806;51.554;5.704;2023-10-09T09:14:17;26.38;;;16.58;;
50495;SDS011;38806;51.554;5.704;2023-10-09T09:16:23;28.30;;;20.10;;
50495;SDS011;38806;51.554;5.704;2023-10-09T09:18:29;31.85;;;15.35;;
50495;SDS011;38806;51.554;5.704;2023-10-09T09:20:36;25.50;;;16.70;;
50495;SDS011;38806;51.554;5.704;2023-10-09T09:22:51;29.27;;;18.40;;
50495;SDS011;38806;51.554;5.704;2023-10-09T09:24:57;29.25;;;16.10;;
50495;SDS011;38806;51.554;5.704;2023-10-09T09:27:03;27.65;;;16.23;;
50495;SDS011;38806;51.554;5.704;2023-10-09T09:29:10;30.15;;;17.65;;
50495;SDS011;38806;51.554;5.704;2023-10-09T09:31:10;26.73;;;17.48;;
50495;SDS011;38806;51.554;5.704;2023-10-09T09:33:17;24.08;;;17.35;;
50495;SDS011;38806;51.554;5.704;2023-10-09T09:35:20;23.02;;;16.67;;
50495;SDS011;38806;51.554;5.704;2023-10-09T09:37:32;25.60;;;17.03;;
50495;SDS011;38806;51.554;5.704;2023-10-09T09:39:50;27.65;;;18.23;;
50495;SDS011;38806;51.554;5.704;2023-10-09T09:41:51;29.48;;;18.13;;
50495;SDS011;38806;51.554;5.704;2023-10-09T09:43:55;22.75;;;16.45;;
50495;SDS011;38806;51.554;5.704;2023-10-09T09:45:56;25.88;;;16.88;;
50495;SDS011;38806;51.554;5.704;2023-10-09T09:47:56;27.40;;;17.38;;
50495;SDS011;38806;51.554;5.704;2023-10-09T09:50:01;22.42;;;16.65;;
50495;SDS011;38806;51.554;5.704;2023-10-09T09:52:12;27.63;;;15.95;;
50495;SDS011;38806;51.554;5.704;2023-10-09T09:54:16;31.40;;;18.90;;
50495;SDS011;38806;51.554;5.704;2023-10-09T09:56:16;26.67;;;17.90;;
50495;SDS011;38806;51.554;5.704;2023-10-09T09:58:18;30.27;;;18.23;;
50495;SDS011;38806;51.554;5.704;2023-10-09T10:00:25;24.98;;;17.50;;
50495;SDS011;38806;51.554;5.704;2023-10-09T10:02:32;28.40;;;17.10;;
50495;SDS011;38806;51.554;5.704;2023-10-09T10:04:39;24.13;;;17.25;;
50495;SDS011;38806;51.554;5.704;2023-10-09T10:06:40;27.48;;;18.05;;
50495;SDS011;38806;51.554;5.704;2023-10-09T10:08:44;26.60;;;17.98;;
50495;SDS011;38806;51.554;5.704;2023-10-09T10:10:50;30.00;;;17.75;;
50495;SDS011;38806;51.554;5.704;2023-10-09T10:12:57;26.65;;;17.00;;
50495;SDS011;38806;51.554;5.704;2023-10-09T10:15:01;29.23;;;17.75;;
50495;SDS011;38806;51.554;5.704;2023-10-09T10:17:30;25.60;;;16.65;;
50495;SDS011;38806;51.554;5.704;2023-10-09T10:21:50;31.05;;;20.90;;
50495;SDS011;38806;51.554;5.704;2023-10-09T10:23:53;27.88;;;18.42;;
50495;SDS011;38806;51.554;5.704;2023-10-09T10:25:54;27.40;;;20.00;;
50495;SDS011;38806;51.554;5.704;2023-10-09T10:28:33;30.00;;;19.23;;
50495;SDS011;38806;51.554;5.704;2023-10-09T10:30:39;28.45;;;18.80;;
50495;SDS011;38806;51.554;5.704;2023-10-09T10:34:52;30.13;;;17.77;;
50495;SDS011;38806;51.554;5.704;2023-10-09T10:36:56;29.08;;;17.02;;
50495;SDS011;38806;51.554;5.704;2023-10-09T10:39:00;27.67;;;19.35;;
50495;SDS011;38806;51.554;5.704;2023-10-09T10:41:09;26.15;;;18.65;;
50495;SDS011;38806;51.554;5.704;2023-10-09T10:43:18;28.85;;;19.80;;
50495;SDS011;38806;51.554;5.704;2023-10-09T10:45:37;27.23;;;18.30;;
50495;SDS011;38806;51.554;5.704;2023-10-09T10:47:43;33.92;;;19.60;;
50495;SDS011;38806;51.554;5.704;2023-10-09T10:49:48;34.35;;;19.35;;
50495;SDS011;38806;51.554;5.704;2023-10-09T10:51:50;38.15;;;18.92;;
50495;SDS011;38806;51.554;5.704;2023-10-09T10:54:01;26.73;;;18.52;;
50495;SDS011;38806;51.554;5.704;2023-10-09T10:56:21;30.73;;;18.48;;
50495;SDS011;38806;51.554;5.704;2023-10-09T10:58:34;27.02;;;18.63;;
50495;SDS011;38806;51.554;5.704;2023-10-09T11:00:37;25.15;;;18.13;;
50495;SDS011;38806;51.554;5.704;2023-10-09T11:02:56;28.13;;;18.10;;
50495;SDS011;38806;51.554;5.704;2023-10-09T11:05:13;30.00;;;20.13;;
50495;SDS011;38806;51.554;5.704;2023-10-09T11:07:25;31.63;;;19.55;;
50495;SDS011;38806;51.554;5.704;2023-10-09T11:09:26;32.88;;;19.92;;
50495;SDS011;38806;51.554;5.704;2023-10-09T11:11:36;25.85;;;17.77;;
50495;SDS011;38806;51.554;5.704;2023-10-09T11:13:49;25.42;;;18.92;;
50495;SDS011;38806;51.554;5.704;2023-10-09T11:18:14;33.47;;;21.20;;
50495;SDS011;38806;51.554;5.704;2023-10-09T11:20:25;30.13;;;20.23;;
50495;SDS011;38806;51.554;5.704;2023-10-09T11:22:26;26.60;;;18.67;;
50495;SDS011;38806;51.554;5.704;2023-10-09T11:24:30;28.80;;;19.13;;
50495;SDS011;38806;51.554;5.704;2023-10-09T11:26:34;25.35;;;18.13;;
50495;SDS011;38806;51.554;5.704;2023-10-09T11:28:40;30.83;;;20.08;;
50495;SDS011;38806;51.554;5.704;2023-10-09T11:30:49;29.92;;;19.23;;
50495;SDS011;38806;51.554;5.704;2023-10-09T11:33:04;31.38;;;19.50;;
50495;SDS011;38806;51.554;5.704;2023-10-09T11:39:23;31.50;;;18.73;;
50495;SDS011;38806;51.554;5.704;2023-10-09T11:41:31;29.20;;;20.25;;
50495;SDS011;38806;51.554;5.704;2023-10-09T11:43:55;27.83;;;19.15;;
50495;SDS011;38806;51.554;5.704;2023-10-09T11:46:07;28.23;;;18.67;;
50495;SDS011;38806;51.554;5.704;2023-10-09T11:48:17;28.15;;;20.38;;
50495;SDS011;38806;51.554;5.704;2023-10-09T11:50:46;29.48;;;20.75;;
50495;SDS011;38806;51.554;5.704;2023-10-09T11:52:59;30.08;;;20.67;;
50495;SDS011;38806;51.554;5.704;2023-10-09T11:55:09;26.67;;;19.75;;
50495;SDS011;38806;51.554;5.704;2023-10-09T11:57:16;32.87;;;21.40;;
50495;SDS011;38806;51.554;5.704;2023-10-09T11:59:17;26.88;;;19.85;;
50495;SDS011;38806;51.554;5.704;2023-10-09T12:01:17;28.90;;;19.50;;
50495;SDS011;38806;51.554;5.704;2023-10-09T12:03:20;30.73;;;21.33;;
50495;SDS011;38806;51.554;5.704;2023-10-09T12:05:23;29.52;;;18.13;;
50495;SDS011;38806;51.554;5.704;2023-10-09T12:07:27;27.13;;;20.38;;
50495;SDS011;38806;51.554;5.704;2023-10-09T12:09:28;29.87;;;19.77;;
50495;SDS011;38806;51.554;5.704;2023-10-09T12:11:29;26.70;;;19.17;;
50495;SDS011;38806;51.554;5.704;2023-10-09T12:13:30;28.45;;;18.88;;
50495;SDS011;38806;51.554;5.704;2023-10-09T12:15:31;29.25;;;20.23;;
50495;SDS011;38806;51.554;5.704;2023-10-09T12:17:38;31.65;;;20.83;;
50495;SDS011;38806;51.554;5.704;2023-10-09T12:19:44;25.90;;;18.58;;
50495;SDS011;38806;51.554;5.704;2023-10-09T12:21:44;26.80;;;16.90;;
50495;SDS011;38806;51.554;5.704;2023-10-09T12:23:44;25.27;;;17.73;;
50495;SDS011;38806;51.554;5.704;2023-10-09T12:25:50;23.92;;;15.98;;
50495;SDS011;38806;51.554;5.704;2023-10-09T12:27:50;25.48;;;16.13;;
50495;SDS011;38806;51.554;5.704;2023-10-09T12:29:54;24.05;;;13.88;;
50495;SDS011;38806;51.554;5.704;2023-10-09T12:31:56;27.35;;;15.35;;
50495;SDS011;38806;51.554;5.704;2023-10-09T12:34:00;19.75;;;12.50;;
50495;SDS011;38806;51.554;5.704;2023-10-09T12:36:00;23.23;;;13.40;;